sensor_id;sensor_type;location;lat;lon;timestamp;temperature;humidity
1888;DHT22;944;51.574;6.980;2023-07-22T00:00:23;15.10;99.90
1888;DHT22;944;51.574;6.980;2023-07-22T00:02:59;15.20;99.90
1888;DHT22;944;51.574;6.980;2023-07-22T00:05:40;15.20;99.90
1888;DHT22;944;51.574;6.980;2023-07-22T00:08:23;15.10;99.90
1888;DHT22;944;51.574;6.980;2023-07-22T00:10:56;15.10;99.90
1888;DHT22;944;51.574;6.980;2023-07-22T00:13:39;15.20;99.90
1888;DHT22;944;51.574;6.980;2023-07-22T00:16:12;15.20;99.90
1888;DHT22;944;51.574;6.980;2023-07-22T00:18:47;15.20;99.90
1888;DHT22;944;51.574;6.980;2023-07-22T00:21:22;15.10;99.90
1888;DHT22;944;51.574;6.980;2023-07-22T00:24:03;15.10;99.90
1888;DHT22;944;51.574;6.980;2023-07-22T00:26:35;15.10;99.90
1888;DHT22;944;51.574;6.980;2023-07-22T00:29:09;15.10;99.90
1888;DHT22;944;51.574;6.980;2023-07-22T00:31:45;15.00;99.90
1888;DHT22;944;51.574;6.980;2023-07-22T00:34:21;15.00;99.90
1888;DHT22;944;51.574;6.980;2023-07-22T00:36:59;15.00;99.90
1888;DHT22;944;51.574;6.980;2023-07-22T00:39:33;14.90;99.90
1888;DHT22;944;51.574;6.980;2023-07-22T00:42:05;14.90;99.90
1888;DHT22;944;51.574;6.980;2023-07-22T00:44:43;14.90;99.90
1888;DHT22;944;51.574;6.980;2023-07-22T00:47:18;14.90;99.90
1888;DHT22;944;51.574;6.980;2023-07-22T00:49:57;14.90;99.90
1888;DHT22;944;51.574;6.980;2023-07-22T00:52:32;14.90;99.90
1888;DHT22;944;51.574;6.980;2023-07-22T00:55:12;14.90;99.90
1888;DHT22;944;51.574;6.980;2023-07-22T00:57:41;14.90;99.90
1888;DHT22;944;51.574;6.980;2023-07-22T01:00:18;14.90;99.90
1888;DHT22;944;51.574;6.980;2023-07-22T01:02:50;14.90;99.90
1888;DHT22;944;51.574;6.980;2023-07-22T01:05:29;14.90;99.90
1888;DHT22;944;51.574;6.980;2023-07-22T01:08:00;14.80;99.90
1888;DHT22;944;51.574;6.980;2023-07-22T01:10:31;14.90;99.90
1888;DHT22;944;51.574;6.980;2023-07-22T01:13:09;14.80;99.90
1888;DHT22;944;51.574;6.980;2023-07-22T01:15:50;14.80;99.90
1888;DHT22;944;51.574;6.980;2023-07-22T01:18:27;14.80;99.90
1888;DHT22;944;51.574;6.980;2023-07-22T01:20:57;14.80;99.90
1888;DHT22;944;51.574;6.980;2023-07-22T01:23:31;14.80;99.90
1888;DHT22;944;51.574;6.980;2023-07-22T01:26:03;14.80;99.90
1888;DHT22;944;51.574;6.980;2023-07-22T01:28:37;14.80;99.90
1888;DHT22;944;51.574;6.980;2023-07-22T01:31:09;14.80;99.90
1888;DHT22;944;51.574;6.980;2023-07-22T01:33:44;14.80;99.90
1888;DHT22;944;51.574;6.980;2023-07-22T01:36:13;14.90;99.90
1888;DHT22;944;51.574;6.980;2023-07-22T01:38:51;14.90;99.90
1888;DHT22;944;51.574;6.980;2023-07-22T01:41:21;14.90;99.90
1888;DHT22;944;51.574;6.980;2023-07-22T01:43:53;14.80;99.90
1888;DHT22;944;51.574;6.980;2023-07-22T01:46:30;14.80;99.90
1888;DHT22;944;51.574;6.980;2023-07-22T01:49:07;14.80;99.90
1888;DHT22;944;51.574;6.980;2023-07-22T01:51:38;14.80;99.90
1888;DHT22;944;51.574;6.980;2023-07-22T01:54:09;14.80;99.90
1888;DHT22;944;51.574;6.980;2023-07-22T01:56:38;14.70;99.90
1888;DHT22;944;51.574;6.980;2023-07-22T01:59:21;14.60;99.90
1888;DHT22;944;51.574;6.980;2023-07-22T02:01:50;14.60;99.90
1888;DHT22;944;51.574;6.980;2023-07-22T02:04:32;14.60;99.90
1888;DHT22;944;51.574;6.980;2023-07-22T02:07:04;14.50;99.90
1888;DHT22;944;51.574;6.980;2023-07-22T02:09:33;14.70;99.90
1888;DHT22;944;51.574;6.980;2023-07-22T02:12:10;14.70;99.90
1888;DHT22;944;51.574;6.980;2023-07-22T02:14:46;14.70;99.90
1888;DHT22;944;51.574;6.980;2023-07-22T02:17:13;14.70;99.90
1888;DHT22;944;51.574;6.980;2023-07-22T02:19:45;14.60;99.90
1888;DHT22;944;51.574;6.980;2023-07-22T02:22:22;14.60;99.90
1888;DHT22;944;51.574;6.980;2023-07-22T02:25:17;14.60;99.90
1888;DHT22;944;51.574;6.980;2023-07-22T02:28:09;14.50;99.90
1888;DHT22;944;51.574;6.980;2023-07-22T02:30:48;14.60;99.90
1888;DHT22;944;51.574;6.980;2023-07-22T02:34:00;14.60;99.90
1888;DHT22;944;51.574;6.980;2023-07-22T02:39:48;14.70;99.90
1888;DHT22;944;51.574;6.980;2023-07-22T02:42:35;14.70;99.90
1888;DHT22;944;51.574;6.980;2023-07-22T02:45:08;14.70;99.90
1888;DHT22;944;51.574;6.980;2023-07-22T02:47:39;14.70;99.90
1888;DHT22;944;51.574;6.980;2023-07-22T02:50:11;14.60;99.90
1888;DHT22;944;51.574;6.980;2023-07-22T02:52:55;14.70;99.90
1888;DHT22;944;51.574;6.980;2023-07-22T02:55:33;14.80;99.90
1888;DHT22;944;51.574;6.980;2023-07-22T02:58:06;14.80;99.90
1888;DHT22;944;51.574;6.980;2023-07-22T03:00:33;14.80;99.90
1888;DHT22;944;51.574;6.980;2023-07-22T03:03:12;14.80;99.90
1888;DHT22;944;51.574;6.980;2023-07-22T03:05:53;14.80;99.90
1888;DHT22;944;51.574;6.980;2023-07-22T03:08:25;14.80;99.90
1888;DHT22;944;51.574;6.980;2023-07-22T03:10:59;14.90;99.90
1888;DHT22;944;51.574;6.980;2023-07-22T03:13:30;14.80;99.90
1888;DHT22;944;51.574;6.980;2023-07-22T03:16:07;14.70;99.90
1888;DHT22;944;51.574;6.980;2023-07-22T03:18:49;14.80;99.90
1888;DHT22;944;51.574;6.980;2023-07-22T03:21:18;14.90;99.90
1888;DHT22;944;51.574;6.980;2023-07-22T03:23:56;14.80;99.90
1888;DHT22;944;51.574;6.980;2023-07-22T03:26:30;14.80;99.90
1888;DHT22;944;51.574;6.980;2023-07-22T03:29:05;14.80;99.90
1888;DHT22;944;51.574;6.980;2023-07-22T03:31:34;14.80;99.90
1888;DHT22;944;51.574;6.980;2023-07-22T03:34:08;14.80;99.90
1888;DHT22;944;51.574;6.980;2023-07-22T03:36:37;14.80;99.90
1888;DHT22;944;51.574;6.980;2023-07-22T03:39:06;14.70;99.90
1888;DHT22;944;51.574;6.980;2023-07-22T03:41:38;14.80;99.90
1888;DHT22;944;51.574;6.980;2023-07-22T03:44:12;14.80;99.90
1888;DHT22;944;51.574;6.980;2023-07-22T03:46:42;14.80;99.90
1888;DHT22;944;51.574;6.980;2023-07-22T03:49:23;14.80;99.90
1888;DHT22;944;51.574;6.980;2023-07-22T03:51:54;14.80;99.90
1888;DHT22;944;51.574;6.980;2023-07-22T03:54:31;14.80;99.90
1888;DHT22;944;51.574;6.980;2023-07-22T03:57:03;15.10;99.90
1888;DHT22;944;51.574;6.980;2023-07-22T03:59:36;14.80;99.90
1888;DHT22;944;51.574;6.980;2023-07-22T04:02:09;14.90;99.90
1888;DHT22;944;51.574;6.980;2023-07-22T04:04:41;14.90;99.90
1888;DHT22;944;51.574;6.980;2023-07-22T04:07:12;14.80;99.90
1888;DHT22;944;51.574;6.980;2023-07-22T04:09:47;14.80;99.90
1888;DHT22;944;51.574;6.980;2023-07-22T04:12:23;14.80;99.90
1888;DHT22;944;51.574;6.980;2023-07-22T04:14:53;14.70;99.90
1888;DHT22;944;51.574;6.980;2023-07-22T04:17:35;14.80;99.90
1888;DHT22;944;51.574;6.980;2023-07-22T04:20:04;14.80;99.90
1888;DHT22;944;51.574;6.980;2023-07-22T04:22:36;14.60;99.90
1888;DHT22;944;51.574;6.980;2023-07-22T04:25:08;14.80;99.90
1888;DHT22;944;51.574;6.980;2023-07-22T04:27:35;14.90;99.90
1888;DHT22;944;51.574;6.980;2023-07-22T04:30:07;14.90;99.90
1888;DHT22;944;51.574;6.980;2023-07-22T04:32:36;14.90;99.90
1888;DHT22;944;51.574;6.980;2023-07-22T04:35:04;14.90;99.90
1888;DHT22;944;51.574;6.980;2023-07-22T04:37:35;14.90;99.90
1888;DHT22;944;51.574;6.980;2023-07-22T04:40:08;14.80;99.90
1888;DHT22;944;51.574;6.980;2023-07-22T04:42:39;14.90;99.90
1888;DHT22;944;51.574;6.980;2023-07-22T04:45:10;14.90;99.90
1888;DHT22;944;51.574;6.980;2023-07-22T04:47:37;14.90;99.90
1888;DHT22;944;51.574;6.980;2023-07-22T04:50:08;15.00;99.90
1888;DHT22;944;51.574;6.980;2023-07-22T04:52:36;15.00;99.90
1888;DHT22;944;51.574;6.980;2023-07-22T04:55:06;15.00;99.90
1888;DHT22;944;51.574;6.980;2023-07-22T04:57:46;15.00;99.90
1888;DHT22;944;51.574;6.980;2023-07-22T05:00:15;15.00;99.90
1888;DHT22;944;51.574;6.980;2023-07-22T05:02:47;15.00;99.90
1888;DHT22;944;51.574;6.980;2023-07-22T05:05:18;15.10;99.90
1888;DHT22;944;51.574;6.980;2023-07-22T05:07:47;14.90;99.90
1888;DHT22;944;51.574;6.980;2023-07-22T05:10:15;15.20;99.90
1888;DHT22;944;51.574;6.980;2023-07-22T05:12:42;15.20;99.90
1888;DHT22;944;51.574;6.980;2023-07-22T05:15:10;15.20;99.90
1888;DHT22;944;51.574;6.980;2023-07-22T05:17:39;15.30;99.90
1888;DHT22;944;51.574;6.980;2023-07-22T05:20:07;15.20;99.90
1888;DHT22;944;51.574;6.980;2023-07-22T05:22:36;15.30;99.90
1888;DHT22;944;51.574;6.980;2023-07-22T05:25:07;15.30;99.90
1888;DHT22;944;51.574;6.980;2023-07-22T05:27:35;15.20;99.90
1888;DHT22;944;51.574;6.980;2023-07-22T05:30:03;15.40;99.90
1888;DHT22;944;51.574;6.980;2023-07-22T05:32:35;15.50;99.90
1888;DHT22;944;51.574;6.980;2023-07-22T05:35:08;15.40;99.90
1888;DHT22;944;51.574;6.980;2023-07-22T05:37:36;15.50;99.90
1888;DHT22;944;51.574;6.980;2023-07-22T05:40:03;15.50;99.90
1888;DHT22;944;51.574;6.980;2023-07-22T05:42:33;15.70;99.90
1888;DHT22;944;51.574;6.980;2023-07-22T05:45:02;15.80;99.90
1888;DHT22;944;51.574;6.980;2023-07-22T05:47:30;15.70;99.90
1888;DHT22;944;51.574;6.980;2023-07-22T05:49:57;16.10;99.90
1888;DHT22;944;51.574;6.980;2023-07-22T05:52:25;16.00;99.90
1888;DHT22;944;51.574;6.980;2023-07-22T05:54:54;16.20;99.90
1888;DHT22;944;51.574;6.980;2023-07-22T05:57:23;16.20;99.90
1888;DHT22;944;51.574;6.980;2023-07-22T05:59:53;16.40;99.90
1888;DHT22;944;51.574;6.980;2023-07-22T06:02:28;16.60;99.90
1888;DHT22;944;51.574;6.980;2023-07-22T06:04:55;17.00;99.90
1888;DHT22;944;51.574;6.980;2023-07-22T06:07:30;17.10;99.90
1888;DHT22;944;51.574;6.980;2023-07-22T06:10:02;17.20;99.90
1888;DHT22;944;51.574;6.980;2023-07-22T06:12:36;17.60;99.90
1888;DHT22;944;51.574;6.980;2023-07-22T06:58:02;19.50;99.90
1888;DHT22;944;51.574;6.980;2023-07-22T07:00:37;19.50;99.90
1888;DHT22;944;51.574;6.980;2023-07-22T07:03:12;19.90;99.90
1888;DHT22;944;51.574;6.980;2023-07-22T07:06:09;20.70;99.90
1888;DHT22;944;51.574;6.980;2023-07-22T07:08:39;20.80;99.90
1888;DHT22;944;51.574;6.980;2023-07-22T07:11:13;20.50;99.90
1888;DHT22;944;51.574;6.980;2023-07-22T07:17:23;20.20;99.90
1888;DHT22;944;51.574;6.980;2023-07-22T07:19:53;20.10;99.90
1888;DHT22;944;51.574;6.980;2023-07-22T07:22:20;19.80;99.90
1888;DHT22;944;51.574;6.980;2023-07-22T07:32:08;20.50;99.90
1888;DHT22;944;51.574;6.980;2023-07-22T07:34:35;20.40;99.90
1888;DHT22;944;51.574;6.980;2023-07-22T07:37:07;20.60;99.90
1888;DHT22;944;51.574;6.980;2023-07-22T07:39:34;20.80;99.90
1888;DHT22;944;51.574;6.980;2023-07-22T07:42:01;20.70;99.90
1888;DHT22;944;51.574;6.980;2023-07-22T07:44:29;20.80;99.90
1888;DHT22;944;51.574;6.980;2023-07-22T07:46:56;20.80;99.90
1888;DHT22;944;51.574;6.980;2023-07-22T07:49:28;20.70;99.90
1888;DHT22;944;51.574;6.980;2023-07-22T07:51:55;20.70;99.90
1888;DHT22;944;51.574;6.980;2023-07-22T07:54:22;20.90;99.90
1888;DHT22;944;51.574;6.980;2023-07-22T07:56:49;20.90;99.90
1888;DHT22;944;51.574;6.980;2023-07-22T07:59:16;20.70;99.90
1888;DHT22;944;51.574;6.980;2023-07-22T08:01:45;20.40;99.90
1888;DHT22;944;51.574;6.980;2023-07-22T08:04:12;20.40;99.90
1888;DHT22;944;51.574;6.980;2023-07-22T08:06:41;20.40;99.90
1888;DHT22;944;51.574;6.980;2023-07-22T08:09:08;20.20;99.90
1888;DHT22;944;51.574;6.980;2023-07-22T08:11:42;20.40;99.90
1888;DHT22;944;51.574;6.980;2023-07-22T08:14:11;20.90;99.90
1888;DHT22;944;51.574;6.980;2023-07-22T08:16:39;21.50;99.90
1888;DHT22;944;51.574;6.980;2023-07-22T08:19:06;21.80;99.90
1888;DHT22;944;51.574;6.980;2023-07-22T08:21:35;21.00;99.90
1888;DHT22;944;51.574;6.980;2023-07-22T08:24:04;20.90;99.90
1888;DHT22;944;51.574;6.980;2023-07-22T08:26:32;21.20;99.90
1888;DHT22;944;51.574;6.980;2023-07-22T08:28:59;21.40;99.90
1888;DHT22;944;51.574;6.980;2023-07-22T08:31:27;21.70;99.90
1888;DHT22;944;51.574;6.980;2023-07-22T08:33:56;21.90;99.90
1888;DHT22;944;51.574;6.980;2023-07-22T08:36:23;21.50;99.90
1888;DHT22;944;51.574;6.980;2023-07-22T08:38:50;21.10;99.90
1888;DHT22;944;51.574;6.980;2023-07-22T08:41:19;20.50;99.90
1888;DHT22;944;51.574;6.980;2023-07-22T08:43:49;20.40;99.90
1888;DHT22;944;51.574;6.980;2023-07-22T08:50:06;20.50;99.90
1888;DHT22;944;51.574;6.980;2023-07-22T08:52:35;20.60;99.90
1888;DHT22;944;51.574;6.980;2023-07-22T08:55:04;20.90;99.90
1888;DHT22;944;51.574;6.980;2023-07-22T08:57:34;21.20;99.90
1888;DHT22;944;51.574;6.980;2023-07-22T09:00:03;21.30;99.90
1888;DHT22;944;51.574;6.980;2023-07-22T09:02:33;21.40;99.90
1888;DHT22;944;51.574;6.980;2023-07-22T09:05:00;21.40;99.90
1888;DHT22;944;51.574;6.980;2023-07-22T09:07:28;21.50;99.90
1888;DHT22;944;51.574;6.980;2023-07-22T09:09:57;21.20;99.90
1888;DHT22;944;51.574;6.980;2023-07-22T09:12:24;21.00;99.90
1888;DHT22;944;51.574;6.980;2023-07-22T09:14:56;20.90;99.90
1888;DHT22;944;51.574;6.980;2023-07-22T09:17:24;20.90;99.90
1888;DHT22;944;51.574;6.980;2023-07-22T09:19:52;20.70;99.90
1888;DHT22;944;51.574;6.980;2023-07-22T09:22:24;20.80;99.90
1888;DHT22;944;51.574;6.980;2023-07-22T09:28:11;20.60;99.90
1888;DHT22;944;51.574;6.980;2023-07-22T09:34:20;21.20;99.90
1888;DHT22;944;51.574;6.980;2023-07-22T09:36:52;20.90;99.90
1888;DHT22;944;51.574;6.980;2023-07-22T09:39:19;21.10;99.90
1888;DHT22;944;51.574;6.980;2023-07-22T09:41:49;21.40;99.90
1888;DHT22;944;51.574;6.980;2023-07-22T09:44:18;21.80;99.90
1888;DHT22;944;51.574;6.980;2023-07-22T09:50:27;22.10;99.90
1888;DHT22;944;51.574;6.980;2023-07-22T09:52:55;22.70;99.90
1888;DHT22;944;51.574;6.980;2023-07-22T09:55:25;22.90;99.90
1888;DHT22;944;51.574;6.980;2023-07-22T09:58:00;23.10;99.90
1888;DHT22;944;51.574;6.980;2023-07-22T10:00:29;22.90;99.90
1888;DHT22;944;51.574;6.980;2023-07-22T11:10:22;22.30;99.90
1888;DHT22;944;51.574;6.980;2023-07-22T11:13:40;22.40;99.90
1888;DHT22;944;51.574;6.980;2023-07-22T11:20:18;22.20;99.90
1888;DHT22;944;51.574;6.980;2023-07-22T11:22:50;22.00;99.90
1888;DHT22;944;51.574;6.980;2023-07-22T11:25:17;21.90;99.90
1888;DHT22;944;51.574;6.980;2023-07-22T11:27:46;21.80;99.90
1888;DHT22;944;51.574;6.980;2023-07-22T11:30:13;21.80;99.90
1888;DHT22;944;51.574;6.980;2023-07-22T11:32:42;22.10;99.90
1888;DHT22;944;51.574;6.980;2023-07-22T11:35:10;22.40;99.90
1888;DHT22;944;51.574;6.980;2023-07-22T11:37:37;22.50;99.90
1888;DHT22;944;51.574;6.980;2023-07-22T11:40:05;22.60;99.90
1888;DHT22;944;51.574;6.980;2023-07-22T11:42:34;22.60;99.90
1888;DHT22;944;51.574;6.980;2023-07-22T11:45:03;22.80;99.90
1888;DHT22;944;51.574;6.980;2023-07-22T11:47:31;22.60;99.90
1888;DHT22;944;51.574;6.980;2023-07-22T11:49:59;22.40;99.90
1888;DHT22;944;51.574;6.980;2023-07-22T11:52:26;22.50;99.90
1888;DHT22;944;51.574;6.980;2023-07-22T11:58:34;22.50;99.90
1888;DHT22;944;51.574;6.980;2023-07-22T12:01:05;22.40;99.90
1888;DHT22;944;51.574;6.980;2023-07-22T12:03:33;22.50;99.90
1888;DHT22;944;51.574;6.980;2023-07-22T12:06:01;22.70;99.90
1888;DHT22;944;51.574;6.980;2023-07-22T12:08:28;22.90;99.90
1888;DHT22;944;51.574;6.980;2023-07-22T12:10:58;23.20;99.90
1888;DHT22;944;51.574;6.980;2023-07-22T12:13:26;23.40;99.90
1888;DHT22;944;51.574;6.980;2023-07-22T12:16:12;23.20;99.90
1888;DHT22;944;51.574;6.980;2023-07-22T12:18:43;23.00;99.90
1888;DHT22;944;51.574;6.980;2023-07-22T12:21:10;23.10;99.90
1888;DHT22;944;51.574;6.980;2023-07-22T12:23:38;23.30;99.90
1888;DHT22;944;51.574;6.980;2023-07-22T12:26:05;23.10;99.90
1888;DHT22;944;51.574;6.980;2023-07-22T12:28:32;23.10;99.90
1888;DHT22;944;51.574;6.980;2023-07-22T12:31:00;23.10;99.90
1888;DHT22;944;51.574;6.980;2023-07-22T12:33:28;23.20;99.90
1888;DHT22;944;51.574;6.980;2023-07-22T12:35:57;23.30;99.90
1888;DHT22;944;51.574;6.980;2023-07-22T12:38:24;23.30;99.90
1888;DHT22;944;51.574;6.980;2023-07-22T12:40:51;23.10;99.90
1888;DHT22;944;51.574;6.980;2023-07-22T12:43:18;23.20;99.90
1888;DHT22;944;51.574;6.980;2023-07-22T12:45:45;23.40;99.90
1888;DHT22;944;51.574;6.980;2023-07-22T12:48:12;23.60;99.90
1888;DHT22;944;51.574;6.980;2023-07-22T12:50:40;23.90;99.90
1888;DHT22;944;51.574;6.980;2023-07-22T12:53:08;23.70;99.90
1888;DHT22;944;51.574;6.980;2023-07-22T12:55:35;23.80;99.90
1888;DHT22;944;51.574;6.980;2023-07-22T12:58:02;23.70;99.90
1888;DHT22;944;51.574;6.980;2023-07-22T13:00:29;23.40;99.90
1888;DHT22;944;51.574;6.980;2023-07-22T13:02:56;23.30;99.90
1888;DHT22;944;51.574;6.980;2023-07-22T13:05:23;23.40;99.90
1888;DHT22;944;51.574;6.980;2023-07-22T13:07:52;23.50;99.90
1888;DHT22;944;51.574;6.980;2023-07-22T13:10:19;23.50;99.90
1888;DHT22;944;51.574;6.980;2023-07-22T13:12:47;23.50;99.90
1888;DHT22;944;51.574;6.980;2023-07-22T13:15:14;23.40;99.90
1888;DHT22;944;51.574;6.980;2023-07-22T13:17:41;23.20;99.90
1888;DHT22;944;51.574;6.980;2023-07-22T13:20:09;23.00;99.90
1888;DHT22;944;51.574;6.980;2023-07-22T13:23:12;22.90;99.90
1888;DHT22;944;51.574;6.980;2023-07-22T13:26:06;22.80;99.90
1888;DHT22;944;51.574;6.980;2023-07-22T13:28:41;22.90;99.90
1888;DHT22;944;51.574;6.980;2023-07-22T13:31:37;23.10;99.90
1888;DHT22;944;51.574;6.980;2023-07-22T13:34:06;23.10;99.90
1888;DHT22;944;51.574;6.980;2023-07-22T13:36:50;23.50;99.90
1888;DHT22;944;51.574;6.980;2023-07-22T13:39:33;24.00;99.90
1888;DHT22;944;51.574;6.980;2023-07-22T13:42:03;23.80;99.90
1888;DHT22;944;51.574;6.980;2023-07-22T13:44:38;23.90;99.90
1888;DHT22;944;51.574;6.980;2023-07-22T13:47:23;23.80;99.90
1888;DHT22;944;51.574;6.980;2023-07-22T13:50:08;23.80;99.90
1888;DHT22;944;51.574;6.980;2023-07-22T13:52:36;23.70;99.90
1888;DHT22;944;51.574;6.980;2023-07-22T13:55:05;23.70;99.90
1888;DHT22;944;51.574;6.980;2023-07-22T13:57:33;23.80;99.90
1888;DHT22;944;51.574;6.980;2023-07-22T14:00:00;23.40;99.90
1888;DHT22;944;51.574;6.980;2023-07-22T14:02:31;23.30;99.90
1888;DHT22;944;51.574;6.980;2023-07-22T14:04:57;23.30;99.90
1888;DHT22;944;51.574;6.980;2023-07-22T14:07:24;23.50;99.90
1888;DHT22;944;51.574;6.980;2023-07-22T14:09:51;23.50;99.90
1888;DHT22;944;51.574;6.980;2023-07-22T14:12:20;23.40;99.90
1888;DHT22;944;51.574;6.980;2023-07-22T14:14:47;23.60;99.90
1888;DHT22;944;51.574;6.980;2023-07-22T14:17:14;23.50;99.90
1888;DHT22;944;51.574;6.980;2023-07-22T14:19:41;23.60;99.90
1888;DHT22;944;51.574;6.980;2023-07-22T14:22:08;23.50;99.90
1888;DHT22;944;51.574;6.980;2023-07-22T14:24:35;23.50;99.90
1888;DHT22;944;51.574;6.980;2023-07-22T14:27:02;23.70;99.90
1888;DHT22;944;51.574;6.980;2023-07-22T14:29:31;23.80;99.90
1888;DHT22;944;51.574;6.980;2023-07-22T14:32:01;23.90;99.90
1888;DHT22;944;51.574;6.980;2023-07-22T14:34:28;23.80;99.90
1888;DHT22;944;51.574;6.980;2023-07-22T14:36:55;23.70;99.90
1888;DHT22;944;51.574;6.980;2023-07-22T14:39:22;23.80;99.90
1888;DHT22;944;51.574;6.980;2023-07-22T14:41:49;23.90;99.90
1888;DHT22;944;51.574;6.980;2023-07-22T14:44:16;23.70;99.90
1888;DHT22;944;51.574;6.980;2023-07-22T14:46:46;23.40;99.90
1888;DHT22;944;51.574;6.980;2023-07-22T14:49:13;23.80;99.90
1888;DHT22;944;51.574;6.980;2023-07-22T14:51:40;23.90;99.90
1888;DHT22;944;51.574;6.980;2023-07-22T14:54:07;23.70;99.90
1888;DHT22;944;51.574;6.980;2023-07-22T14:56:34;23.40;99.90
1888;DHT22;944;51.574;6.980;2023-07-22T14:59:01;23.80;99.90
1888;DHT22;944;51.574;6.980;2023-07-22T15:01:36;24.00;99.90
1888;DHT22;944;51.574;6.980;2023-07-22T15:04:06;24.20;99.90
1888;DHT22;944;51.574;6.980;2023-07-22T15:06:36;24.30;99.90
1888;DHT22;944;51.574;6.980;2023-07-22T15:09:08;24.30;99.90
1888;DHT22;944;51.574;6.980;2023-07-22T15:11:36;24.00;99.90
1888;DHT22;944;51.574;6.980;2023-07-22T15:14:04;23.90;99.90
1888;DHT22;944;51.574;6.980;2023-07-22T15:16:36;23.50;99.90
1888;DHT22;944;51.574;6.980;2023-07-22T15:19:13;23.40;99.90
1888;DHT22;944;51.574;6.980;2023-07-22T15:21:43;23.50;99.90
1888;DHT22;944;51.574;6.980;2023-07-22T15:24:16;23.50;99.90
1888;DHT22;944;51.574;6.980;2023-07-22T15:26:45;23.50;99.90
1888;DHT22;944;51.574;6.980;2023-07-22T15:29:16;23.50;99.90
1888;DHT22;944;51.574;6.980;2023-07-22T15:31:47;23.50;99.90
1888;DHT22;944;51.574;6.980;2023-07-22T15:34:30;23.40;99.90
1888;DHT22;944;51.574;6.980;2023-07-22T15:36:59;23.50;99.90
1888;DHT22;944;51.574;6.980;2023-07-22T15:39:29;23.60;99.90
1888;DHT22;944;51.574;6.980;2023-07-22T15:41:59;23.30;99.90
1888;DHT22;944;51.574;6.980;2023-07-22T15:44:26;23.30;99.90
1888;DHT22;944;51.574;6.980;2023-07-22T15:46:53;23.20;99.90
1888;DHT22;944;51.574;6.980;2023-07-22T15:49:20;23.40;99.90
1888;DHT22;944;51.574;6.980;2023-07-22T15:51:49;23.30;99.90
1888;DHT22;944;51.574;6.980;2023-07-22T15:54:16;23.40;99.90
1888;DHT22;944;51.574;6.980;2023-07-22T15:56:45;23.30;99.90
1888;DHT22;944;51.574;6.980;2023-07-22T15:59:12;23.40;99.90
1888;DHT22;944;51.574;6.980;2023-07-22T16:01:39;23.40;99.90
1888;DHT22;944;51.574;6.980;2023-07-22T16:04:07;23.40;99.90
1888;DHT22;944;51.574;6.980;2023-07-22T16:06:34;23.40;99.90
1888;DHT22;944;51.574;6.980;2023-07-22T16:09:03;23.20;99.90
1888;DHT22;944;51.574;6.980;2023-07-22T16:11:30;23.20;99.90
1888;DHT22;944;51.574;6.980;2023-07-22T16:13:57;23.20;99.90
1888;DHT22;944;51.574;6.980;2023-07-22T16:16:24;23.30;99.90
1888;DHT22;944;51.574;6.980;2023-07-22T16:18:51;23.40;99.90
1888;DHT22;944;51.574;6.980;2023-07-22T16:21:19;23.40;99.90
1888;DHT22;944;51.574;6.980;2023-07-22T16:23:46;23.40;99.90
1888;DHT22;944;51.574;6.980;2023-07-22T16:26:15;23.40;99.90
1888;DHT22;944;51.574;6.980;2023-07-22T16:28:42;23.50;99.90
1888;DHT22;944;51.574;6.980;2023-07-22T16:31:09;23.40;99.90
1888;DHT22;944;51.574;6.980;2023-07-22T16:33:36;23.10;99.90
1888;DHT22;944;51.574;6.980;2023-07-22T16:36:04;23.20;99.90
1888;DHT22;944;51.574;6.980;2023-07-22T16:38:31;23.10;99.90
1888;DHT22;944;51.574;6.980;2023-07-22T16:40:58;23.10;99.90
1888;DHT22;944;51.574;6.980;2023-07-22T16:43:26;23.00;99.90
1888;DHT22;944;51.574;6.980;2023-07-22T16:45:54;23.10;99.90
1888;DHT22;944;51.574;6.980;2023-07-22T16:48:21;23.00;99.90
1888;DHT22;944;51.574;6.980;2023-07-22T16:50:48;23.00;99.90
1888;DHT22;944;51.574;6.980;2023-07-22T16:53:15;23.10;99.90
1888;DHT22;944;51.574;6.980;2023-07-22T16:55:42;23.00;99.90
1888;DHT22;944;51.574;6.980;2023-07-22T16:58:09;23.10;99.90
1888;DHT22;944;51.574;6.980;2023-07-22T17:00:39;23.10;99.90
1888;DHT22;944;51.574;6.980;2023-07-22T17:03:06;23.10;99.90
1888;DHT22;944;51.574;6.980;2023-07-22T17:05:33;23.20;99.90
1888;DHT22;944;51.574;6.980;2023-07-22T17:08:01;23.20;99.90
1888;DHT22;944;51.574;6.980;2023-07-22T17:10:28;23.20;99.90
1888;DHT22;944;51.574;6.980;2023-07-22T17:12:55;23.20;99.90
1888;DHT22;944;51.574;6.980;2023-07-22T17:15:22;23.00;99.90
1888;DHT22;944;51.574;6.980;2023-07-22T17:17:50;23.10;99.90
1888;DHT22;944;51.574;6.980;2023-07-22T17:20:18;22.90;99.90
1888;DHT22;944;51.574;6.980;2023-07-22T17:22:46;22.90;99.90
1888;DHT22;944;51.574;6.980;2023-07-22T17:25:13;22.70;99.90
1888;DHT22;944;51.574;6.980;2023-07-22T17:27:40;22.80;99.90
1888;DHT22;944;51.574;6.980;2023-07-22T17:30:08;22.80;99.90
1888;DHT22;944;51.574;6.980;2023-07-22T17:32:35;22.70;99.90
1888;DHT22;944;51.574;6.980;2023-07-22T17:35:05;22.60;99.90
1888;DHT22;944;51.574;6.980;2023-07-22T17:37:32;22.50;99.90
1888;DHT22;944;51.574;6.980;2023-07-22T17:40:03;22.40;99.90
1888;DHT22;944;51.574;6.980;2023-07-22T17:42:30;22.20;99.90
1888;DHT22;944;51.574;6.980;2023-07-22T17:44:57;22.30;99.90
1888;DHT22;944;51.574;6.980;2023-07-22T17:47:24;22.10;99.90
1888;DHT22;944;51.574;6.980;2023-07-22T17:49:51;22.10;99.90
1888;DHT22;944;51.574;6.980;2023-07-22T17:52:20;22.00;99.90
1888;DHT22;944;51.574;6.980;2023-07-22T17:54:47;22.00;99.90
1888;DHT22;944;51.574;6.980;2023-07-22T17:57:30;22.00;99.90
1888;DHT22;944;51.574;6.980;2023-07-22T17:59:57;22.00;99.90
1888;DHT22;944;51.574;6.980;2023-07-22T18:02:24;22.00;99.90
1888;DHT22;944;51.574;6.980;2023-07-22T18:04:51;21.80;99.90
1888;DHT22;944;51.574;6.980;2023-07-22T18:07:19;21.70;99.90
1888;DHT22;944;51.574;6.980;2023-07-22T18:09:46;21.80;99.90
1888;DHT22;944;51.574;6.980;2023-07-22T18:12:13;21.70;99.90
1888;DHT22;944;51.574;6.980;2023-07-22T18:14:40;21.70;99.90
1888;DHT22;944;51.574;6.980;2023-07-22T18:17:07;21.70;99.90
1888;DHT22;944;51.574;6.980;2023-07-22T18:19:34;21.70;99.90
1888;DHT22;944;51.574;6.980;2023-07-22T18:22:01;21.70;99.90
1888;DHT22;944;51.574;6.980;2023-07-22T18:24:30;21.70;99.90
1888;DHT22;944;51.574;6.980;2023-07-22T18:26:57;21.60;99.90
1888;DHT22;944;51.574;6.980;2023-07-22T18:29:23;21.50;99.90
1888;DHT22;944;51.574;6.980;2023-07-22T18:31:50;21.60;99.90
1888;DHT22;944;51.574;6.980;2023-07-22T18:34:20;21.40;99.90
1888;DHT22;944;51.574;6.980;2023-07-22T18:36:47;21.50;99.90
1888;DHT22;944;51.574;6.980;2023-07-22T18:39:15;21.50;99.90
1888;DHT22;944;51.574;6.980;2023-07-22T18:41:43;21.30;99.90
1888;DHT22;944;51.574;6.980;2023-07-22T18:44:10;21.30;99.90
1888;DHT22;944;51.574;6.980;2023-07-22T18:46:37;21.30;99.90
1888;DHT22;944;51.574;6.980;2023-07-22T18:49:07;21.20;99.90
1888;DHT22;944;51.574;6.980;2023-07-22T18:51:36;21.30;99.90
1888;DHT22;944;51.574;6.980;2023-07-22T18:54:03;21.10;99.90
1888;DHT22;944;51.574;6.980;2023-07-22T18:56:30;21.20;99.90
1888;DHT22;944;51.574;6.980;2023-07-22T18:59:00;21.10;99.90
1888;DHT22;944;51.574;6.980;2023-07-22T19:01:27;21.10;99.90
1888;DHT22;944;51.574;6.980;2023-07-22T19:03:54;21.10;99.90
1888;DHT22;944;51.574;6.980;2023-07-22T19:06:21;21.10;99.90